Time;durP1;ratioP1;P1;durP2;ratioP2;P2;SDS_P1;SDS_P2;PMS_P1;PMS_P2;Temp;Humidity;BMP_temperature;BMP_pressure;BME280_temperature;BME280_humidity;BME280_pressure;Samples;Min_cycle;Max_cycle;Signal;HPM_P1;HPM_P2
2022/09/14 00:01:16;;;;;;;5.63;2.90;;;17.90;99.90;;;;;;5071459;28;20431;-73
2022/09/14 00:04:04;;;;;;;6.77;4.00;;;17.90;99.90;;;;;;5067837;28;20963;-72
2022/09/14 00:06:51;;;;;;;8.27;3.80;;;18.00;99.90;;;;;;5058086;28;20443;-73
2022/09/14 00:09:36;;;;;;;13.33;3.30;;;18.00;99.90;;;;;;5065770;28;20434;-73
2022/09/14 00:12:22;;;;;;;6.77;3.83;;;17.90;99.90;;;;;;5059818;28;20545;-74
2022/09/14 00:15:08;;;;;;;6.40;3.80;;;17.90;99.90;;;;;;5062647;28;21102;-73
2022/09/14 00:17:54;;;;;;;4.83;3.60;;;17.90;99.90;;;;;;5069769;28;20405;-73
2022/09/14 00:20:40;;;;;;;12.07;4.20;;;17.90;99.90;;;;;;5061062;28;20774;-73
2022/09/14 00:23:27;;;;;;;7.17;3.40;;;17.90;99.90;;;;;;5062838;28;20585;-73
2022/09/14 00:26:15;;;;;;;5.80;3.10;;;18.00;99.90;;;;;;5065208;28;20421;-73
2022/09/14 00:29:03;;;;;;;14.03;4.10;;;18.00;99.90;;;;;;5068305;28;20785;-73
2022/09/14 00:31:49;;;;;;;7.27;3.27;;;18.00;99.90;;;;;;5068635;28;20597;-73
2022/09/14 00:34:34;;;;;;;13.13;4.20;;;18.00;99.90;;;;;;5062600;28;20549;-72
2022/09/14 00:37:20;;;;;;;7.83;3.80;;;18.00;99.90;;;;;;5067258;28;20426;-73
2022/09/14 00:40:10;;;;;;;9.50;3.60;;;18.10;99.90;;;;;;5061756;28;21060;-73
2022/09/14 00:42:56;;;;;;;6.73;3.27;;;18.00;99.90;;;;;;5065979;28;20944;-73
2022/09/14 00:45:41;;;;;;;8.77;3.50;;;18.00;99.90;;;;;;5064159;28;20565;-73
2022/09/14 00:48:27;;;;;;;5.23;3.03;;;18.00;99.90;;;;;;5068463;28;20505;-73
2022/09/14 00:51:15;;;;;;;13.40;3.80;;;18.00;99.90;;;;;;5070954;28;20915;-73
2022/09/14 00:54:02;;;;;;;6.80;3.63;;;18.10;99.90;;;;;;5061645;28;20444;-73
2022/09/14 00:56:50;;;;;;;11.90;3.20;;;18.10;99.90;;;;;;5068448;28;21050;-73
2022/09/14 00:59:39;;;;;;;6.93;3.90;;;18.10;99.90;;;;;;5071970;28;20531;-73
2022/09/14 01:02:28;;;;;;;7.47;3.50;;;18.10;99.90;;;;;;5062433;28;20393;-73
2022/09/14 01:05:14;;;;;;;11.03;3.87;;;18.10;99.90;;;;;;5068243;28;20695;-73
2022/09/14 01:08:28;;;;;;;7.37;4.37;;;18.10;99.90;;;;;;5068245;28;20426;-73
2022/09/14 01:11:27;;;;;;;7.07;3.70;;;18.00;99.90;;;;;;5062161;28;20433;-73
2022/09/14 01:14:21;;;;;;;6.03;4.17;;;18.00;99.90;;;;;;5063479;28;20458;-73
2022/09/14 01:17:12;;;;;;;9.63;4.60;;;18.10;99.90;;;;;;5063450;28;20430;-73
2022/09/14 01:20:15;;;;;;;10.60;4.67;;;18.10;99.90;;;;;;5066149;28;20565;-73
2022/09/14 01:23:12;;;;;;;10.80;4.47;;;18.10;99.90;;;;;;5068795;28;20397;-73
2022/09/14 01:26:45;;;;;;;8.37;3.87;;;18.10;99.90;;;;;;5063151;28;20440;-73
2022/09/14 01:29:35;;;;;;;11.40;3.37;;;18.10;99.90;;;;;;5060932;28;20485;-73
2022/09/14 01:32:25;;;;;;;10.20;4.40;;;18.10;99.90;;;;;;5061497;28;20466;-73
2022/09/14 01:35:16;;;;;;;15.67;4.50;;;18.10;99.90;;;;;;5056081;28;20826;-73
2022/09/14 01:38:05;;;;;;;9.47;4.37;;;18.10;99.90;;;;;;5067583;28;20431;-73
2022/09/14 01:40:51;;;;;;;12.67;3.90;;;18.10;99.90;;;;;;5068479;28;20394;-73
2022/09/14 01:43:40;;;;;;;10.37;3.97;;;18.20;99.90;;;;;;5065051;28;20463;-73
2022/09/14 01:46:30;;;;;;;3.37;2.90;;;18.20;99.90;;;;;;5067724;28;20449;-73
2022/09/14 01:49:20;;;;;;;5.80;3.73;;;18.20;99.90;;;;;;5060659;28;20441;-73
2022/09/14 01:52:11;;;;;;;9.40;4.10;;;18.20;99.90;;;;;;5068499;28;20557;-73
2022/09/14 01:55:01;;;;;;;9.00;3.73;;;18.20;99.90;;;;;;5064123;28;20481;-73
2022/09/14 01:57:51;;;;;;;5.03;4.00;;;18.20;99.90;;;;;;5066525;28;20421;-73
2022/09/14 02:00:42;;;;;;;6.33;3.70;;;18.10;99.90;;;;;;5068453;28;20426;-73
2022/09/14 02:03:31;;;;;;;7.80;3.50;;;18.10;99.90;;;;;;5049514;28;20458;-72
2022/09/14 02:06:23;;;;;;;6.07;3.77;;;18.10;99.90;;;;;;5067912;28;20416;-74
2022/09/14 02:09:12;;;;;;;4.50;2.50;;;18.10;99.90;;;;;;5070095;28;20926;-73
2022/09/14 02:11:59;;;;;;;4.97;2.53;;;18.10;99.90;;;;;;5067355;28;20419;-73
2022/09/14 02:14:46;;;;;;;17.23;3.20;;;18.10;99.90;;;;;;5058091;28;20461;-73
2022/09/14 02:17:31;;;;;;;4.87;3.33;;;18.10;99.90;;;;;;5057610;28;20431;-73
2022/09/14 02:20:22;;;;;;;6.90;3.40;;;18.10;99.90;;;;;;5070880;28;20902;-73
2022/09/14 02:23:08;;;;;;;19.63;3.33;;;18.10;99.90;;;;;;5059022;28;20800;-73
2022/09/14 02:25:54;;;;;;;6.40;4.00;;;18.00;99.90;;;;;;5061000;28;20435;-73
2022/09/14 02:28:40;;;;;;;6.13;3.40;;;18.00;99.90;;;;;;5067306;28;21094;-73
2022/09/14 02:31:41;;;;;;;6.97;3.10;;;18.00;99.90;;;;;;5063072;28;20402;-73
2022/09/14 02:34:34;;;;;;;9.47;3.40;;;18.00;99.90;;;;;;5054164;28;20437;-73
2022/09/14 02:37:30;;;;;;;7.30;4.00;;;18.10;99.90;;;;;;5062431;28;20573;-73
2022/09/14 02:40:23;;;;;;;14.63;3.87;;;18.10;99.90;;;;;;5055129;28;20438;-73
2022/09/14 02:43:25;;;;;;;10.73;3.37;;;18.20;99.90;;;;;;5064451;28;20459;-73
2022/09/14 02:46:17;;;;;;;10.87;3.60;;;18.20;99.90;;;;;;5069412;28;20437;-73
2022/09/14 02:49:09;;;;;;;12.77;3.77;;;18.20;99.90;;;;;;5067841;28;20960;-73
2022/09/14 02:52:02;;;;;;;6.60;3.47;;;18.20;99.90;;;;;;5061334;28;20410;-73
2022/09/14 02:54:57;;;;;;;8.30;3.50;;;18.20;99.90;;;;;;5067452;28;20497;-73
2022/09/14 02:58:03;;;;;;;6.20;2.90;;;18.10;99.90;;;;;;5060267;28;20436;-73
2022/09/14 03:00:50;;;;;;;5.87;3.10;;;18.00;99.90;;;;;;5062663;28;20419;-73
2022/09/14 03:03:36;;;;;;;6.80;3.70;;;18.00;99.90;;;;;;5056386;28;20467;-73
2022/09/14 03:06:22;;;;;;;9.40;3.70;;;18.00;99.90;;;;;;5059042;28;20923;-73
2022/09/14 03:09:07;;;;;;;11.57;3.50;;;18.00;99.90;;;;;;5062179;28;20593;-73
2022/09/14 03:11:54;;;;;;;8.03;4.13;;;18.00;99.90;;;;;;5066119;28;20553;-73
2022/09/14 03:14:39;;;;;;;10.33;3.23;;;17.90;99.90;;;;;;5058410;28;20712;-73
2022/09/14 03:17:25;;;;;;;12.03;3.30;;;17.90;99.90;;;;;;5061714;28;20758;-73
2022/09/14 03:20:11;;;;;;;5.20;3.10;;;17.80;99.90;;;;;;5070504;28;20794;-73
2022/09/14 03:22:58;;;;;;;9.47;2.87;;;17.90;99.90;;;;;;5068771;28;20805;-73
2022/09/14 03:25:44;;;;;;;7.60;3.80;;;18.00;99.90;;;;;;5064477;28;20410;-73
2022/09/14 03:28:31;;;;;;;8.70;3.27;;;18.00;99.90;;;;;;5066991;28;20428;-73
2022/09/14 03:31:17;;;;;;;7.67;3.13;;;18.00;99.90;;;;;;5058709;28;20423;-73
2022/09/14 03:34:02;;;;;;;9.63;3.27;;;17.90;99.90;;;;;;5067481;28;20548;-73
2022/09/14 03:36:48;;;;;;;8.63;2.40;;;17.90;99.90;;;;;;5069956;28;20436;-73
2022/09/14 03:39:33;;;;;;;8.13;2.43;;;17.90;99.90;;;;;;5061651;28;20806;-73
2022/09/14 03:42:19;;;;;;;8.93;3.00;;;18.00;99.90;;;;;;5069401;28;20571;-73
2022/09/14 03:45:07;;;;;;;5.90;2.70;;;18.00;99.90;;;;;;5072920;28;20422;-73
2022/09/14 03:47:52;;;;;;;8.13;2.90;;;18.00;99.90;;;;;;5066362;28;20402;-73
2022/09/14 03:50:38;;;;;;;7.00;3.00;;;18.00;99.90;;;;;;5065456;28;20820;-73
2022/09/14 03:53:24;;;;;;;7.73;2.50;;;17.90;99.90;;;;;;5064420;28;20474;-73
2022/09/14 03:56:10;;;;;;;9.33;3.20;;;17.90;99.90;;;;;;5070653;28;20460;-73
2022/09/14 03:58:55;;;;;;;7.73;2.77;;;17.90;99.90;;;;;;5070231;28;20577;-73
2022/09/14 04:01:43;;;;;;;8.93;2.77;;;17.90;99.90;;;;;;5064831;28;20422;-73
2022/09/14 04:04:29;;;;;;;11.33;5.13;;;17.90;99.90;;;;;;5070844;28;20951;-73
2022/09/14 04:07:15;;;;;;;11.00;3.53;;;17.90;99.90;;;;;;5058074;28;20453;-73
2022/09/14 04:10:01;;;;;;;4.63;3.00;;;17.90;99.90;;;;;;5067096;28;20462;-73
2022/09/14 04:12:46;;;;;;;5.00;2.53;;;18.00;99.90;;;;;;5063937;28;20447;-73
2022/09/14 04:15:32;;;;;;;7.47;4.20;;;18.00;99.90;;;;;;5063442;28;20796;-73
2022/09/14 04:18:19;;;;;;;5.77;3.00;;;17.90;99.90;;;;;;5062093;28;20430;-73
2022/09/14 04:21:06;;;;;;;5.37;3.20;;;17.90;99.90;;;;;;5064785;28;20431;-73
2022/09/14 04:23:53;;;;;;;7.20;2.93;;;17.90;99.90;;;;;;5068351;28;20454;-75
2022/09/14 04:26:39;;;;;;;6.43;2.63;;;17.90;99.90;;;;;;5068196;28;20540;-75
2022/09/14 04:29:25;;;;;;;9.83;2.70;;;18.00;99.90;;;;;;5065852;28;20396;-75
2022/09/14 04:32:10;;;;;;;9.50;2.10;;;17.90;99.90;;;;;;5068619;28;20783;-75
2022/09/14 04:34:58;;;;;;;7.57;3.10;;;17.90;99.90;;;;;;5065464;28;20471;-75
2022/09/14 04:37:43;;;;;;;5.93;2.30;;;18.00;99.90;;;;;;5064971;28;20393;-75
2022/09/14 04:40:29;;;;;;;6.57;2.23;;;17.90;99.90;;;;;;5065443;28;20435;-74
2022/09/14 04:43:15;;;;;;;11.70;2.80;;;18.00;99.90;;;;;;5070879;28;20425;-74
2022/09/14 04:46:02;;;;;;;6.30;2.50;;;18.00;99.90;;;;;;5069239;28;20438;-75
2022/09/14 04:48:49;;;;;;;3.33;1.90;;;18.00;99.90;;;;;;5072118;28;20394;-75
2022/09/14 04:51:37;;;;;;;6.30;3.20;;;18.00;99.90;;;;;;5064183;28;20509;-75
2022/09/14 04:54:22;;;;;;;4.30;2.73;;;18.00;99.90;;;;;;5069017;28;20476;-75
2022/09/14 04:57:08;;;;;;;8.37;3.33;;;18.00;99.90;;;;;;5065923;28;20426;-75
2022/09/14 04:59:54;;;;;;;7.90;2.63;;;18.00;99.90;;;;;;5066968;28;20426;-74
2022/09/14 05:02:41;;;;;;;9.27;3.03;;;18.00;99.90;;;;;;5064612;28;21084;-72
2022/09/14 05:05:26;;;;;;;6.67;2.37;;;18.00;99.90;;;;;;5064988;28;20469;-75
2022/09/14 05:08:13;;;;;;;6.47;2.73;;;18.00;99.90;;;;;;5065559;28;20431;-75
2022/09/14 05:10:59;;;;;;;5.57;2.23;;;18.00;99.90;;;;;;5067923;28;21059;-75
2022/09/14 05:13:45;;;;;;;9.60;4.13;;;18.00;99.90;;;;;;5063259;28;21078;-75
2022/09/14 05:16:33;;;;;;;8.93;3.20;;;18.10;99.90;;;;;;5059221;28;20487;-75
2022/09/14 05:19:18;;;;;;;5.43;2.93;;;18.10;99.90;;;;;;5066547;28;20918;-74
2022/09/14 05:22:04;;;;;;;8.53;3.57;;;18.00;99.90;;;;;;5068925;28;20788;-75
2022/09/14 05:24:51;;;;;;;4.93;2.57;;;18.00;99.90;;;;;;5065761;28;20533;-72
2022/09/14 05:27:36;;;;;;;5.73;3.27;;;18.00;99.90;;;;;;5063592;28;20540;-75
2022/09/14 05:30:22;;;;;;;4.60;2.70;;;18.10;99.90;;;;;;5060759;28;20417;-74
2022/09/14 05:33:08;;;;;;;5.90;2.87;;;18.10;99.90;;;;;;5069730;28;20397;-75
2022/09/14 05:36:00;;;;;;;5.73;3.03;;;18.10;99.90;;;;;;5067546;28;20812;-75
2022/09/14 05:38:46;;;;;;;9.60;2.90;;;18.10;99.90;;;;;;5070737;28;20405;-75
2022/09/14 05:41:33;;;;;;;6.07;2.60;;;18.10;99.90;;;;;;5061050;28;20453;-75
2022/09/14 05:44:18;;;;;;;8.93;3.03;;;18.10;99.90;;;;;;5067047;28;20447;-75
2022/09/14 05:47:04;;;;;;;9.40;2.60;;;18.20;99.90;;;;;;5067016;28;20433;-75
2022/09/14 05:49:49;;;;;;;3.87;2.37;;;18.10;99.90;;;;;;5059315;28;23034;-73
2022/09/14 05:52:35;;;;;;;4.43;2.73;;;18.20;99.90;;;;;;5066025;28;20402;-74
2022/09/14 05:55:21;;;;;;;15.10;2.80;;;18.20;99.90;;;;;;5062461;28;20927;-75
2022/09/14 05:58:09;;;;;;;4.40;2.63;;;18.20;99.90;;;;;;5065064;28;20795;-75
2022/09/14 06:00:55;;;;;;;6.97;3.17;;;18.30;99.90;;;;;;5065641;28;20425;-75
2022/09/14 06:03:42;;;;;;;4.97;2.53;;;18.30;99.90;;;;;;5068534;28;20450;-75
2022/09/14 06:06:27;;;;;;;4.57;2.50;;;18.20;99.90;;;;;;5059134;28;20467;-74
2022/09/14 06:09:14;;;;;;;9.80;3.10;;;18.20;99.90;;;;;;5066960;28;20392;-75
2022/09/14 06:12:00;;;;;;;14.20;3.63;;;18.30;99.90;;;;;;5070095;28;20536;-74
2022/09/14 06:14:47;;;;;;;5.10;3.70;;;18.30;99.90;;;;;;5061659;28;20537;-75
2022/09/14 06:17:32;;;;;;;6.00;4.60;;;18.30;99.90;;;;;;5068891;28;20450;-75
2022/09/14 06:20:18;;;;;;;10.77;5.60;;;18.30;99.90;;;;;;5058656;28;20777;-74
2022/09/14 06:23:04;;;;;;;14.50;6.70;;;18.40;99.90;;;;;;5066364;28;20501;-75
2022/09/14 06:25:52;;;;;;;15.40;10.33;;;18.40;99.90;;;;;;5062509;28;20804;-74
2022/09/14 06:28:38;;;;;;;13.13;9.17;;;18.30;99.90;;;;;;5070144;28;20406;-75
2022/09/14 06:31:24;;;;;;;11.43;9.03;;;18.30;99.90;;;;;;5066316;28;20438;-75
2022/09/14 06:34:10;;;;;;;15.10;7.97;;;18.20;99.90;;;;;;5064342;28;20569;-75
2022/09/14 06:36:56;;;;;;;13.23;7.97;;;18.20;99.90;;;;;;5067828;28;21002;-75
2022/09/14 06:39:42;;;;;;;9.47;6.87;;;18.20;99.90;;;;;;5062788;28;20458;-75
2022/09/14 06:42:29;;;;;;;15.40;6.30;;;18.20;99.90;;;;;;5065859;28;21058;-75
2022/09/14 06:45:15;;;;;;;9.13;6.23;;;18.20;99.90;;;;;;5064184;28;20401;-75
2022/09/14 06:48:02;;;;;;;9.90;5.77;;;18.20;99.90;;;;;;5066349;28;20398;-75
2022/09/14 06:50:48;;;;;;;9.60;5.23;;;18.20;99.90;;;;;;5063030;28;20422;-75
2022/09/14 06:53:34;;;;;;;8.40;5.80;;;18.30;99.90;;;;;;5068384;28;21052;-75
2022/09/14 06:56:20;;;;;;;9.37;6.73;;;18.30;99.90;;;;;;5061143;28;20405;-75
2022/09/14 06:59:07;;;;;;;8.90;6.53;;;18.30;99.90;;;;;;5069527;28;20443;-75
2022/09/14 07:01:53;;;;;;;7.07;5.63;;;18.30;99.90;;;;;;5070880;28;20998;-75
2022/09/14 07:04:40;;;;;;;6.87;6.17;;;18.20;99.90;;;;;;5068214;28;20464;-75
2022/09/14 07:07:26;;;;;;;7.50;6.30;;;18.30;99.90;;;;;;5064040;28;20416;-75
2022/09/14 07:10:11;;;;;;;8.20;6.90;;;18.30;99.90;;;;;;5068588;28;20437;-74
2022/09/14 07:12:59;;;;;;;10.70;8.50;;;18.30;99.90;;;;;;5068784;28;20565;-76
2022/09/14 07:15:49;;;;;;;12.50;9.20;;;18.40;99.90;;;;;;5062705;28;20618;-75
2022/09/14 07:18:35;;;;;;;11.50;6.93;;;18.40;99.90;;;;;;5067389;28;20425;-76
2022/09/14 07:21:23;;;;;;;10.83;7.80;;;18.40;99.90;;;;;;5072564;28;20426;-74
2022/09/14 07:24:10;;;;;;;10.70;8.83;;;18.50;99.90;;;;;;5068108;28;21132;-75
2022/09/14 07:26:56;;;;;;;9.33;8.30;;;18.50;99.90;;;;;;5070366;28;20705;-75
2022/09/14 07:29:41;;;;;;;10.40;9.40;;;18.40;99.90;;;;;;5065560;28;20457;-75
2022/09/14 07:32:27;;;;;;;11.10;10.00;;;18.40;99.90;;;;;;5063875;28;20401;-76
2022/09/14 07:35:13;;;;;;;14.10;10.67;;;18.40;99.90;;;;;;5071035;28;20540;-75
2022/09/14 07:38:00;;;;;;;14.67;11.03;;;18.40;99.90;;;;;;5067670;28;20434;-72
2022/09/14 07:40:45;;;;;;;14.03;12.53;;;18.50;99.90;;;;;;5067476;28;20472;-76
2022/09/14 07:43:31;;;;;;;12.50;11.27;;;18.50;99.90;;;;;;5061465;28;20444;-75
2022/09/14 07:46:17;;;;;;;11.83;10.40;;;18.50;99.90;;;;;;5063443;28;20442;-74
2022/09/14 07:49:03;;;;;;;10.60;9.60;;;18.50;99.90;;;;;;5065934;28;20454;-75
2022/09/14 07:51:49;;;;;;;10.47;9.30;;;18.50;99.90;;;;;;5068536;28;20778;-75
2022/09/14 07:54:36;;;;;;;10.60;9.40;;;18.60;99.90;;;;;;5069539;28;20478;-75
2022/09/14 07:57:22;;;;;;;10.10;9.10;;;18.70;99.90;;;;;;5065460;28;20397;-76
2022/09/14 08:00:09;;;;;;;10.40;7.43;;;18.70;99.90;;;;;;5066154;28;20451;-75
2022/09/14 08:02:56;;;;;;;12.70;7.80;;;18.80;99.90;;;;;;5066468;28;20431;-75
2022/09/14 08:05:42;;;;;;;8.93;7.83;;;18.70;99.90;;;;;;5066495;28;20818;-75
2022/09/14 08:08:32;;;;;;;8.57;6.87;;;18.70;99.90;;;;;;5061571;28;20570;-72
2022/09/14 08:11:20;;;;;;;7.23;6.53;;;18.70;99.90;;;;;;5067509;28;20444;-75
2022/09/14 08:14:10;;;;;;;10.93;6.57;;;18.70;99.90;;;;;;5070015;28;20469;-75
2022/09/14 08:16:56;;;;;;;8.93;6.87;;;18.70;99.90;;;;;;5063556;28;20503;-75
2022/09/14 08:19:41;;;;;;;8.60;6.33;;;18.70;99.90;;;;;;5069561;28;20422;-76
2022/09/14 08:22:28;;;;;;;7.87;7.07;;;18.80;99.90;;;;;;5066080;28;20464;-75
2022/09/14 08:25:14;;;;;;;7.70;6.70;;;18.80;99.90;;;;;;5068120;28;20532;-75
2022/09/14 08:28:00;;;;;;;7.17;6.47;;;18.80;99.90;;;;;;5063128;28;20576;-76
2022/09/14 08:30:46;;;;;;;8.70;7.23;;;18.80;99.90;;;;;;5070092;28;20792;-76
2022/09/14 08:33:33;;;;;;;8.27;7.47;;;18.80;99.90;;;;;;5060633;28;20534;-75
2022/09/14 08:36:20;;;;;;;8.60;6.70;;;18.80;99.90;;;;;;5068889;28;20448;-75
2022/09/14 08:39:09;;;;;;;8.27;7.47;;;18.80;99.90;;;;;;5064330;28;20649;-75
2022/09/14 08:41:57;;;;;;;11.50;8.77;;;18.80;99.90;;;;;;5067135;28;20565;-74
2022/09/14 08:44:51;;;;;;;12.77;9.87;;;18.80;99.90;;;;;;5065814;28;20512;-75
2022/09/14 08:47:38;;;;;;;10.23;9.17;;;18.90;99.90;;;;;;5068895;28;20454;-75
2022/09/14 08:50:24;;;;;;;9.63;8.63;;;18.80;99.90;;;;;;5066901;28;20948;-75
2022/09/14 08:53:10;;;;;;;10.60;9.00;;;18.80;99.90;;;;;;5070236;28;20401;-75
2022/09/14 08:56:00;;;;;;;9.40;8.50;;;18.80;99.90;;;;;;5062222;28;20609;-75
2022/09/14 08:58:58;;;;;;;11.13;8.97;;;18.90;99.90;;;;;;5067097;28;20507;-75
2022/09/14 09:01:54;;;;;;;10.43;9.33;;;18.90;99.90;;;;;;5067704;28;20534;-75
2022/09/14 09:04:51;;;;;;;9.23;8.43;;;19.00;99.90;;;;;;5064575;28;20592;-75
2022/09/14 09:07:47;;;;;;;9.67;8.63;;;19.00;99.90;;;;;;5063170;28;20552;-75
2022/09/14 09:10:34;;;;;;;10.30;9.27;;;19.10;99.90;;;;;;5065564;28;20392;-76
2022/09/14 09:13:22;;;;;;;10.57;8.50;;;19.20;99.90;;;;;;5060594;28;20528;-74
2022/09/14 09:16:10;;;;;;;11.43;9.30;;;19.30;99.90;;;;;;5068529;28;20466;-75
2022/09/14 09:19:02;;;;;;;17.17;10.70;;;19.30;99.90;;;;;;5069701;28;20793;-75
2022/09/14 09:21:49;;;;;;;12.10;11.00;;;19.40;99.90;;;;;;5063324;28;20646;-75
2022/09/14 09:24:40;;;;;;;12.97;10.50;;;19.40;99.90;;;;;;5066345;28;20471;-75
2022/09/14 09:27:26;;;;;;;14.00;11.60;;;19.50;99.90;;;;;;5058493;28;20521;-76
2022/09/14 09:30:14;;;;;;;12.70;11.40;;;19.40;99.90;;;;;;5061613;28;20933;-75
2022/09/14 09:33:00;;;;;;;14.63;13.07;;;19.40;99.90;;;;;;5064885;28;20808;-75
2022/09/14 09:35:47;;;;;;;18.43;12.00;;;19.40;99.90;;;;;;5068641;28;20593;-76
2022/09/14 09:38:33;;;;;;;13.70;12.50;;;19.50;99.90;;;;;;5067775;28;20976;-75
2022/09/14 09:41:22;;;;;;;13.83;12.37;;;19.50;99.90;;;;;;5065404;28;20573;-75
2022/09/14 09:44:09;;;;;;;13.70;12.40;;;19.40;99.90;;;;;;5068422;28;20525;-74
2022/09/14 09:46:58;;;;;;;12.90;10.73;;;19.40;99.90;;;;;;5064143;28;20945;-74
2022/09/14 09:49:44;;;;;;;10.93;9.83;;;19.50;99.90;;;;;;5064737;28;20427;-75
2022/09/14 09:52:31;;;;;;;11.40;10.40;;;19.50;99.90;;;;;;5070013;28;20507;-75
2022/09/14 09:55:19;;;;;;;11.00;8.77;;;19.50;99.90;;;;;;5056411;28;20467;-75
2022/09/14 09:58:21;;;;;;;8.60;7.70;;;19.50;99.90;;;;;;5065532;28;20582;-75
2022/09/14 10:01:14;;;;;;;11.20;7.90;;;19.60;99.90;;;;;;5067067;28;20400;-74
2022/09/14 10:04:17;;;;;;;10.73;8.87;;;19.60;99.90;;;;;;5067090;28;20975;-76
2022/09/14 10:07:04;;;;;;;13.03;9.70;;;19.70;99.90;;;;;;5066382;28;20970;-75
2022/09/14 10:10:00;;;;;;;11.83;8.33;;;19.70;99.90;;;;;;5063864;28;20581;-73
2022/09/14 10:12:48;;;;;;;10.97;9.57;;;19.80;99.90;;;;;;5066812;28;20397;-76
2022/09/14 10:15:35;;;;;;;12.47;9.20;;;19.90;99.90;;;;;;5063698;28;20990;-75
2022/09/14 10:18:22;;;;;;;11.30;8.57;;;20.20;99.90;;;;;;5061357;28;20442;-76
2022/09/14 10:21:09;;;;;;;11.63;8.57;;;20.30;99.90;;;;;;5060194;28;21696;-73
2022/09/14 10:24:18;;;;;;;8.33;7.50;;;20.30;99.90;;;;;;5077020;22;20846;-73
2022/09/14 10:27:38;;;;;;;9.53;7.97;;;20.40;99.90;;;;;;5064030;28;20447;-72
2022/09/14 10:30:26;;;;;;;12.33;9.00;;;20.50;99.90;;;;;;5060789;28;20469;-73
2022/09/14 10:33:17;;;;;;;8.70;6.30;;;20.60;99.90;;;;;;5068390;28;20454;-74
2022/09/14 10:36:08;;;;;;;8.00;7.20;;;20.60;99.90;;;;;;5045632;28;20475;-72
2022/09/14 10:38:58;;;;;;;7.63;6.87;;;20.60;99.90;;;;;;5050390;28;21071;-72
2022/09/14 10:41:48;;;;;;;8.10;7.30;;;20.80;99.90;;;;;;5047600;28;20808;-74
2022/09/14 10:44:48;;;;;;;11.20;10.03;;;20.90;99.90;;;;;;5037999;28;20492;-72
2022/09/14 10:47:50;;;;;;;14.40;10.10;;;21.10;99.90;;;;;;5049749;28;20509;-73
2022/09/14 10:50:49;;;;;;;11.57;10.30;;;21.20;99.90;;;;;;5044752;28;20443;-72
2022/09/14 10:53:48;;;;;;;11.30;9.63;;;21.30;99.90;;;;;;5044555;28;20573;-73
2022/09/14 10:56:44;;;;;;;14.93;8.37;;;21.40;99.90;;;;;;5043351;28;20454;-74
2022/09/14 10:59:38;;;;;;;11.83;9.60;;;21.50;99.90;;;;;;5045712;28;20414;-73
2022/09/14 11:02:46;;;;;;;14.43;8.40;;;21.70;99.90;;;;;;5045848;28;20970;-73
2022/09/14 11:05:36;;;;;;;12.50;11.30;;;21.70;99.90;;;;;;5048806;28;20476;-74
2022/09/14 11:08:31;;;;;;;13.77;10.10;;;21.70;99.90;;;;;;5050915;28;20505;-73
2022/09/14 11:11:29;;;;;;;17.13;10.50;;;21.60;99.90;;;;;;5040834;28;20579;-73
2022/09/14 11:14:30;;;;;;;9.93;8.90;;;21.70;99.90;;;;;;5044214;28;20455;-73
2022/09/14 11:17:33;;;;;;;10.80;8.87;;;21.70;99.90;;;;;;5045023;28;20435;-73
2022/09/14 11:20:30;;;;;;;9.37;8.40;;;21.90;99.90;;;;;;5047638;28;21203;-72
2022/09/14 11:23:43;;;;;;;10.47;9.37;;;22.10;99.90;;;;;;5043833;28;20418;-73
2022/09/14 11:26:33;;;;;;;12.10;8.50;;;22.20;99.90;;;;;;5040327;28;20435;-76
2022/09/14 11:29:26;;;;;;;11.97;8.43;;;22.50;99.90;;;;;;5039559;28;20510;-75
2022/09/14 11:32:19;;;;;;;10.50;9.40;;;22.60;99.90;;;;;;5043579;28;20446;-75
2022/09/14 11:35:16;;;;;;;11.37;8.67;;;22.70;99.90;;;;;;5047182;28;21031;-75
2022/09/14 11:38:07;;;;;;;14.77;9.50;;;22.80;99.90;;;;;;5049570;28;20422;-76
2022/09/14 11:40:56;;;;;;;10.50;9.50;;;22.70;99.90;;;;;;5048031;28;20471;-75
2022/09/14 11:43:47;;;;;;;12.43;10.07;;;22.70;99.90;;;;;;5044136;28;20971;-76
2022/09/14 11:46:36;;;;;;;11.17;9.40;;;22.50;99.90;;;;;;5034374;28;20943;-75
2022/09/14 11:49:27;;;;;;;13.67;10.93;;;22.40;99.90;;;;;;5039117;28;20444;-75
2022/09/14 11:52:19;;;;;;;11.73;9.30;;;22.40;99.90;;;;;;5050718;28;20506;-75
2022/09/14 11:55:15;;;;;;;16.23;12.07;;;22.30;99.90;;;;;;5045573;28;20486;-75
2022/09/14 11:58:01;;;;;;;12.83;10.43;;;22.20;99.90;;;;;;5044903;28;21009;-75
2022/09/14 12:01:03;;;;;;;14.57;10.40;;;22.10;99.90;;;;;;5042658;28;20444;-75
2022/09/14 12:04:05;;;;;;;12.07;9.80;;;22.00;99.90;;;;;;5048772;28;20582;-75
2022/09/14 12:06:54;;;;;;;16.43;8.80;;;21.90;99.90;;;;;;5047898;28;20398;-75
2022/09/14 12:09:45;;;;;;;18.70;10.30;;;21.90;99.90;;;;;;5039452;28;20452;-75
2022/09/14 12:12:37;;;;;;;13.60;10.50;;;21.90;99.90;;;;;;5045698;28;20416;-75
2022/09/14 12:15:33;;;;;;;12.90;10.77;;;21.80;99.90;;;;;;5040294;28;20471;-75
2022/09/14 12:18:24;;;;;;;14.30;11.40;;;21.80;99.90;;;;;;5050671;28;20574;-75
2022/09/14 12:21:21;;;;;;;14.57;11.67;;;21.80;99.90;;;;;;5048894;28;20456;-75
2022/09/14 12:24:14;;;;;;;11.80;9.83;;;21.80;99.90;;;;;;5041776;28;20546;-75
2022/09/14 12:27:15;;;;;;;13.70;10.07;;;21.80;99.90;;;;;;5048073;28;20467;-75
2022/09/14 12:30:01;;;;;;;11.20;9.43;;;21.80;99.90;;;;;;5050945;28;20428;-75
2022/09/14 12:32:48;;;;;;;8.50;7.43;;;21.80;99.90;;;;;;5047759;28;20443;-75
2022/09/14 12:35:46;;;;;;;11.50;8.50;;;21.80;99.90;;;;;;5044513;28;20479;-75
2022/09/14 12:39:21;;;;;;;12.93;9.57;;;21.70;99.90;;;;;;5045847;28;20432;-75
2022/09/14 12:42:31;;;;;;;13.00;10.20;;;21.70;99.90;;;;;;5047341;28;20447;-75
2022/09/14 12:45:49;;;;;;;10.17;9.17;;;21.60;99.90;;;;;;5042376;28;20467;-75
2022/09/14 12:48:57;;;;;;;9.70;8.70;;;21.60;99.90;;;;;;5045140;28;20525;-75
2022/09/14 12:51:48;;;;;;;12.40;8.90;;;21.50;99.90;;;;;;5036640;28;20436;-75
2022/09/14 12:54:48;;;;;;;10.17;9.17;;;21.50;99.90;;;;;;5044151;28;20518;-75
2022/09/14 12:57:45;;;;;;;12.73;10.23;;;21.40;99.90;;;;;;5043979;28;20443;-75
2022/09/14 13:00:44;;;;;;;18.60;9.27;;;21.40;99.90;;;;;;5050298;28;20455;-75
2022/09/14 13:03:47;;;;;;;13.70;10.67;;;21.30;99.90;;;;;;5044383;28;20491;-75
2022/09/14 13:06:40;;;;;;;10.70;9.60;;;21.30;99.90;;;;;;5044910;28;20938;-75
2022/09/14 13:09:28;;;;;;;13.87;10.27;;;21.30;99.90;;;;;;5044309;28;20963;-75
2022/09/14 13:12:23;;;;;;;10.23;9.00;;;21.20;99.90;;;;;;5048111;28;20873;-75
2022/09/14 13:15:18;;;;;;;10.10;9.13;;;21.20;99.90;;;;;;5047083;28;20573;-75
2022/09/14 13:18:06;;;;;;;15.23;8.87;;;21.10;99.90;;;;;;5044605;28;20413;-75
2022/09/14 13:20:52;;;;;;;11.37;8.97;;;21.10;99.90;;;;;;5045435;28;20447;-74
2022/09/14 13:23:42;;;;;;;15.70;9.80;;;21.10;99.90;;;;;;5039132;28;20468;-75
2022/09/14 13:26:30;;;;;;;13.00;10.30;;;21.10;99.90;;;;;;5048837;28;20422;-75
2022/09/14 13:29:17;;;;;;;12.43;9.10;;;21.00;99.90;;;;;;5039779;28;20469;-76
2022/09/14 13:32:05;;;;;;;14.23;9.93;;;21.00;99.90;;;;;;5046809;28;20455;-75
2022/09/14 13:34:51;;;;;;;12.13;9.57;;;21.00;99.90;;;;;;5042048;28;20441;-75
2022/09/14 13:37:38;;;;;;;12.07;10.20;;;21.00;99.90;;;;;;5051181;28;20471;-75
2022/09/14 13:40:27;;;;;;;10.20;8.77;;;21.00;99.90;;;;;;5042938;28;20418;-75
2022/09/14 13:43:13;;;;;;;12.60;9.10;;;21.00;99.90;;;;;;5042791;28;20511;-75
2022/09/14 13:45:58;;;;;;;9.60;8.20;;;21.00;99.90;;;;;;5047129;28;20472;-75
2022/09/14 13:48:46;;;;;;;9.43;7.70;;;21.00;99.90;;;;;;5047104;28;20574;-75
2022/09/14 13:51:31;;;;;;;8.63;7.83;;;21.00;99.90;;;;;;5043341;28;20443;-75
2022/09/14 13:54:25;;;;;;;13.03;9.00;;;21.10;99.90;;;;;;5044068;28;20448;-75
2022/09/14 13:57:12;;;;;;;9.07;7.93;;;21.00;99.90;;;;;;5048618;28;20605;-76
2022/09/14 14:00:14;;;;;;;8.33;6.90;;;21.00;99.90;;;;;;5050327;28;20410;-76
2022/09/14 14:03:02;;;;;;;8.80;7.50;;;21.00;99.90;;;;;;5041384;28;20879;-75
2022/09/14 14:05:49;;;;;;;9.60;6.90;;;21.00;99.90;;;;;;5041270;28;20439;-76
2022/09/14 14:08:53;;;;;;;13.67;7.90;;;21.00;99.90;;;;;;5037999;28;20447;-76
2022/09/14 14:11:46;;;;;;;9.37;7.10;;;21.00;99.90;;;;;;5044421;28;20506;-76
2022/09/14 14:14:39;;;;;;;7.20;4.70;;;21.00;99.90;;;;;;5051253;28;20478;-79
2022/09/14 14:17:54;;;;;;;5.37;3.93;;;21.00;99.90;;;;;;5050227;28;20545;-78
2022/09/14 14:20:41;;;;;;;4.37;3.20;;;21.00;99.90;;;;;;5030629;28;20459;-77
2022/09/14 14:23:30;;;;;;;6.13;3.20;;;20.80;99.90;;;;;;5047526;28;20440;-77
2022/09/14 14:26:22;;;;;;;4.50;2.90;;;20.80;99.90;;;;;;5050683;28;20443;-76
2022/09/14 14:29:09;;;;;;;3.93;2.90;;;20.70;99.90;;;;;;5048743;28;20827;-78
2022/09/14 14:32:04;;;;;;;5.53;3.10;;;20.60;99.90;;;;;;5050858;28;20433;-76
2022/09/14 14:34:51;;;;;;;12.97;3.20;;;20.60;99.90;;;;;;5048170;28;20879;-76
2022/09/14 14:37:46;;;;;;;7.30;3.73;;;20.50;99.90;;;;;;5048204;28;20477;-77